createdAt,value
2023-02-16T00:01:34.244Z,7.60
2023-02-16T00:06:29.304Z,7.75
2023-02-16T00:11:47.298Z,7.55
2023-02-16T00:16:40.738Z,7.50
2023-02-16T00:21:34.284Z,7.82
2023-02-16T00:26:28.814Z,8.30
2023-02-16T00:31:24.625Z,7.88
2023-02-16T00:36:18.298Z,7.45
2023-02-16T00:41:39.031Z,7.47
2023-02-16T00:46:31.537Z,7.57
2023-02-16T00:51:26.329Z,7.93
2023-02-16T00:56:21.685Z,7.78
2023-02-16T01:01:16.748Z,7.53
2023-02-16T01:06:32.297Z,8.50
2023-02-16T01:11:27.446Z,7.68
2023-02-16T01:16:23.700Z,7.38
2023-02-16T01:21:16.842Z,7.50
2023-02-16T01:26:16.878Z,7.97
2023-02-16T01:31:12.470Z,6.57
2023-02-16T01:36:06.872Z,7.30
2023-02-16T01:41:44.128Z,6.25
2023-02-16T01:46:46.802Z,6.35
2023-02-16T01:52:03.348Z,7.47
2023-02-16T01:57:36.060Z,6.80
2023-02-16T02:02:50.150Z,6.03
2023-02-16T02:07:51.951Z,5.75
2023-02-16T02:12:57.369Z,5.50
2023-02-16T02:17:51.464Z,5.40
2023-02-16T02:23:08.615Z,5.05
2023-02-16T02:28:20.391Z,5.20
2023-02-16T02:33:54.873Z,6.00
2023-02-16T02:39:31.818Z,5.25
2023-02-16T02:44:29.293Z,5.10
2023-02-16T02:49:21.623Z,4.68
2023-02-16T02:54:46.519Z,4.78
2023-02-16T03:00:02.614Z,4.70
2023-02-16T03:05:02.876Z,5.20
2023-02-16T03:10:16.457Z,4.80
2023-02-16T03:15:09.643Z,5.00
2023-02-16T03:20:24.892Z,4.32
2023-02-16T03:25:37.300Z,4.88
2023-02-16T03:30:31.240Z,5.13
2023-02-16T03:35:25.356Z,5.05
2023-02-16T03:40:33.109Z,4.78
2023-02-16T03:45:26.316Z,4.93
2023-02-16T03:50:19.803Z,5.25
2023-02-16T03:55:13.258Z,5.10
2023-02-16T04:00:05.935Z,4.53
2023-02-16T04:05:06.133Z,5.60
2023-02-16T04:10:00.216Z,5.05
2023-02-16T04:14:52.846Z,4.53
2023-02-16T04:19:45.449Z,4.88
2023-02-16T04:24:39.071Z,5.22
2023-02-16T04:29:32.704Z,4.72
2023-02-16T04:34:25.855Z,4.55
2023-02-16T04:39:21.159Z,4.25
2023-02-16T04:44:15.027Z,4.72
2023-02-16T04:49:08.373Z,4.28
2023-02-16T04:54:01.895Z,4.25
2023-02-16T04:58:56.390Z,4.10
2023-02-16T05:03:49.314Z,4.10
2023-02-16T05:08:42.026Z,4.65
2023-02-16T05:13:53.950Z,4.00
2023-02-16T05:18:46.504Z,4.07
2023-02-16T05:23:39.580Z,3.42
2023-02-16T05:28:33.393Z,3.30
2023-02-16T05:33:26.383Z,3.30
2023-02-16T05:38:19.729Z,3.60
2023-02-16T05:43:13.514Z,3.53
2023-02-16T05:48:07.106Z,2.88
2023-02-16T05:53:00.473Z,3.13
2023-02-16T05:57:53.956Z,3.13
2023-02-16T06:02:48.402Z,2.70
2023-02-16T06:07:41.676Z,3.58
2023-02-16T06:12:35.397Z,3.17
2023-02-16T06:17:29.177Z,3.13
2023-02-16T06:22:22.681Z,2.97
2023-02-16T06:27:16.025Z,3.00
2023-02-16T06:32:09.191Z,3.03
2023-02-16T06:37:01.899Z,7.07
2023-02-16T06:41:55.499Z,7.88
2023-02-16T06:46:48.576Z,7.47
2023-02-16T06:51:42.069Z,6.25
2023-02-16T06:56:37.660Z,5.90
2023-02-16T07:01:31.633Z,5.40
2023-02-16T07:06:26.942Z,5.38
2023-02-16T07:11:20.982Z,4.95
2023-02-16T07:16:14.597Z,5.40
2023-02-16T07:21:07.789Z,5.45
2023-02-16T07:26:01.372Z,4.75
2023-02-16T07:30:55.418Z,5.03
2023-02-16T07:35:48.258Z,4.13
2023-02-16T07:40:42.380Z,5.15
2023-02-16T07:45:36.032Z,6.13
2023-02-16T07:50:29.186Z,5.50
2023-02-16T07:55:22.372Z,6.03
2023-02-16T08:00:16.242Z,5.93
2023-02-16T08:05:09.660Z,6.65
2023-02-16T08:10:01.852Z,7.18
2023-02-16T08:14:55.141Z,7.63
2023-02-16T08:19:48.273Z,6.90
2023-02-16T08:24:41.606Z,7.95
2023-02-16T08:29:34.142Z,8.25
2023-02-16T08:34:27.787Z,8.68
2023-02-16T08:39:21.940Z,10.98
2023-02-16T08:44:16.447Z,12.38
2023-02-16T08:49:11.379Z,12.80
2023-02-16T08:54:06.127Z,14.35
2023-02-16T08:58:59.754Z,14.32
2023-02-16T09:03:53.251Z,14.80
2023-02-16T09:08:47.332Z,14.73
2023-02-16T09:13:41.820Z,14.68
2023-02-16T09:18:35.130Z,16.10
2023-02-16T09:23:28.612Z,18.10
2023-02-16T09:28:22.074Z,17.52
2023-02-16T09:33:15.300Z,18.73
2023-02-16T09:38:09.479Z,18.27
2023-02-16T09:43:27.685Z,18.08
2023-02-16T09:48:38.014Z,19.23
2023-02-16T09:53:39.640Z,20.67
2023-02-16T09:58:42.802Z,20.88
2023-02-16T10:04:09.063Z,20.92
2023-02-16T10:09:12.398Z,20.95
2023-02-16T10:14:17.016Z,24.58
2023-02-16T10:19:21.982Z,23.02
2023-02-16T10:24:16.488Z,24.92
2023-02-16T10:29:16.563Z,22.20
2023-02-16T10:34:36.138Z,20.90
2023-02-16T10:39:32.136Z,21.63
2023-02-16T10:44:36.581Z,20.55
2023-02-16T10:49:31.717Z,19.05
2023-02-16T10:54:32.568Z,18.67
2023-02-16T10:59:30.291Z,18.38
2023-02-16T11:04:36.041Z,18.23
2023-02-16T11:09:29.094Z,16.10
2023-02-16T11:14:31.113Z,17.17
2023-02-16T11:19:26.730Z,15.95
2023-02-16T11:24:38.402Z,17.17
2023-02-16T11:29:31.650Z,15.90
2023-02-16T11:34:33.138Z,16.73
2023-02-16T11:39:33.148Z,16.83
2023-02-16T11:44:45.263Z,16.38
2023-02-16T11:49:42.804Z,17.30
2023-02-16T11:54:35.895Z,17.35
2023-02-16T11:59:35.154Z,16.05
2023-02-16T12:04:41.128Z,16.25
2023-02-16T12:09:39.339Z,16.38
2023-02-16T12:14:41.203Z,15.90
2023-02-16T12:19:46.278Z,16.38
2023-02-16T12:25:11.186Z,16.55
2023-02-16T12:30:29.742Z,14.93
2023-02-16T12:35:44.447Z,15.40
2023-02-16T12:40:58.996Z,17.33
2023-02-16T12:45:55.175Z,19.73
2023-02-16T12:50:49.877Z,22.65
2023-02-16T12:55:51.891Z,22.65
2023-02-16T13:00:49.031Z,21.67
2023-02-16T13:05:42.558Z,20.65
2023-02-16T13:10:44.161Z,19.77
2023-02-16T13:15:41.202Z,19.95
2023-02-16T13:20:34.170Z,19.30
2023-02-16T13:25:36.697Z,18.25
2023-02-16T13:30:58.736Z,18.90
2023-02-16T13:36:11.005Z,19.08
2023-02-16T13:41:20.885Z,18.77
2023-02-16T13:46:50.902Z,18.60
2023-02-16T13:51:47.020Z,18.13
2023-02-16T13:56:40.563Z,18.35
2023-02-16T14:01:32.987Z,18.05
2023-02-16T14:06:34.393Z,17.48
2023-02-16T14:11:27.822Z,18.40
2023-02-16T14:16:23.241Z,18.05
2023-02-16T14:21:21.306Z,19.35
2023-02-16T14:26:14.954Z,20.05
2023-02-16T14:31:18.168Z,21.85
2023-02-16T14:36:21.532Z,24.08
2023-02-16T14:41:28.061Z,25.10
2023-02-16T14:46:39.383Z,24.30
2023-02-16T14:51:51.035Z,25.52
2023-02-16T14:56:48.554Z,25.08
2023-02-16T15:01:51.977Z,26.45
2023-02-16T15:06:48.729Z,25.63
2023-02-16T15:12:09.828Z,24.42
2023-02-16T15:17:07.960Z,24.10
2023-02-16T15:22:13.854Z,23.38
2023-02-16T15:27:07.153Z,23.40
2023-02-16T15:32:01.836Z,22.38
2023-02-16T15:36:54.323Z,23.05
2023-02-16T15:41:52.765Z,22.80
2023-02-16T15:46:45.824Z,21.35
2023-02-16T15:51:40.033Z,21.63
2023-02-16T15:56:38.830Z,20.52
2023-02-16T16:01:35.300Z,21.35
2023-02-16T16:06:39.047Z,18.00
2023-02-16T16:11:33.365Z,18.75
2023-02-16T16:16:26.275Z,17.95
2023-02-16T16:21:34.736Z,17.70
2023-02-16T16:26:30.222Z,16.77
2023-02-16T16:31:25.225Z,15.63
2023-02-16T16:36:47.498Z,16.10
2023-02-16T16:41:42.326Z,15.52
2023-02-16T16:46:36.367Z,14.80
2023-02-16T16:51:41.993Z,16.02
2023-02-16T16:56:41.809Z,15.38
2023-02-16T17:01:35.116Z,13.97
2023-02-16T17:06:27.856Z,14.13
2023-02-16T17:11:33.006Z,14.55
2023-02-16T17:16:37.355Z,14.55
2023-02-16T17:21:30.461Z,14.88
2023-02-16T17:26:24.344Z,14.98
2023-02-16T17:31:17.629Z,14.27
2023-02-16T17:36:15.325Z,14.68
2023-02-16T17:41:07.833Z,14.57
2023-02-16T17:46:05.078Z,14.90
2023-02-16T17:50:59.144Z,15.48
2023-02-16T17:55:58.275Z,14.60
2023-02-16T18:00:54.251Z,14.90
2023-02-16T18:05:49.835Z,13.35
2023-02-16T18:10:48.601Z,12.90
2023-02-16T18:15:46.003Z,12.50
2023-02-16T18:20:39.027Z,14.30
2023-02-16T18:25:33.032Z,13.50
2023-02-16T18:30:26.050Z,13.00
2023-02-16T18:35:20.363Z,13.00
2023-02-16T18:40:17.527Z,13.80
2023-02-16T18:45:11.952Z,14.77
2023-02-16T18:50:07.212Z,15.85
2023-02-16T18:54:59.381Z,21.88
2023-02-16T18:59:52.094Z,28.98
2023-02-16T19:04:45.310Z,37.20
2023-02-16T19:09:37.408Z,36.13
2023-02-16T19:14:30.292Z,36.15
2023-02-16T19:19:23.648Z,37.20
2023-02-16T19:24:16.422Z,37.17
2023-02-16T19:29:10.093Z,38.42
2023-02-16T19:34:03.546Z,37.40
2023-02-16T19:38:56.460Z,37.50
2023-02-16T19:43:49.300Z,37.88
2023-02-16T19:48:42.634Z,42.45
2023-02-16T19:53:36.308Z,41.30
2023-02-16T19:58:36.579Z,38.85
2023-02-16T20:03:30.789Z,34.90
2023-02-16T20:08:24.114Z,33.22
2023-02-16T20:13:17.008Z,31.60
2023-02-16T20:18:11.054Z,30.85
2023-02-16T20:23:04.074Z,29.33
2023-02-16T20:27:57.664Z,26.85
2023-02-16T20:32:50.432Z,25.13
2023-02-16T20:37:44.054Z,25.50
2023-02-16T20:42:37.546Z,24.98
2023-02-16T20:47:30.540Z,24.33
2023-02-16T20:52:23.729Z,24.00
2023-02-16T20:57:26.461Z,23.33
2023-02-16T21:02:20.876Z,23.02
2023-02-16T21:07:13.782Z,22.60
2023-02-16T21:12:07.217Z,22.90
2023-02-16T21:17:01.307Z,22.52
2023-02-16T21:21:54.279Z,22.40
2023-02-16T21:26:46.238Z,20.92
2023-02-16T21:31:38.899Z,20.65
2023-02-16T21:36:32.166Z,19.67
2023-02-16T21:41:29.417Z,19.73
2023-02-16T21:46:23.368Z,20.30
2023-02-16T21:51:19.847Z,19.40
2023-02-16T21:56:32.389Z,19.55
2023-02-16T22:01:29.414Z,19.27
2023-02-16T22:06:24.858Z,20.52
2023-02-16T22:11:17.259Z,19.67
2023-02-16T22:16:17.271Z,20.85
2023-02-16T22:21:11.366Z,19.73
2023-02-16T22:26:07.299Z,19.40
2023-02-16T22:31:07.294Z,20.08
2023-02-16T22:36:10.535Z,18.00
2023-02-16T22:41:07.215Z,19.92
2023-02-16T22:45:59.597Z,19.02
2023-02-16T22:51:00.913Z,18.65
2023-02-16T22:55:54.164Z,17.88
2023-02-16T23:00:47.249Z,18.70
2023-02-16T23:05:42.240Z,18.05
2023-02-16T23:10:38.622Z,18.17
2023-02-16T23:15:32.980Z,18.77
2023-02-16T23:20:25.804Z,18.08
2023-02-16T23:25:34.459Z,17.75
2023-02-16T23:30:26.688Z,18.02
2023-02-16T23:35:20.268Z,17.67
2023-02-16T23:40:14.480Z,17.85
2023-02-16T23:45:07.523Z,17.95
2023-02-16T23:50:00.131Z,17.52
2023-02-16T23:54:54.411Z,18.05
2023-02-16T23:59:47.837Z,18.25
